sensor_id;sensor_type;location;lat;lon;timestamp;P1;durP1;ratioP1;P2;durP2;ratioP2
40995;SDS011;26723;57.478;12.066;2023-03-30T00:02:13;0.87;;;0.87;;
40995;SDS011;26723;57.478;12.066;2023-03-30T00:05:24;0.70;;;0.70;;
40995;SDS011;26723;57.478;12.066;2023-03-30T00:08:33;0.70;;;0.70;;
40995;SDS011;26723;57.478;12.066;2023-03-30T00:11:41;1.00;;;1.00;;
40995;SDS011;26723;57.478;12.066;2023-03-30T00:14:51;0.70;;;0.70;;
40995;SDS011;26723;57.478;12.066;2023-03-30T00:18:01;0.97;;;0.90;;
40995;SDS011;26723;57.478;12.066;2023-03-30T00:21:09;0.73;;;0.73;;
40995;SDS011;26723;57.478;12.066;2023-03-30T00:24:17;0.70;;;0.70;;
40995;SDS011;26723;57.478;12.066;2023-03-30T00:27:26;0.70;;;0.70;;
40995;SDS011;26723;57.478;12.066;2023-03-30T00:30:34;1.00;;;1.00;;
40995;SDS011;26723;57.478;12.066;2023-03-30T00:33:45;0.70;;;0.70;;
40995;SDS011;26723;57.478;12.066;2023-03-30T00:36:53;0.90;;;0.90;;
40995;SDS011;26723;57.478;12.066;2023-03-30T00:40:03;0.90;;;0.90;;
40995;SDS011;26723;57.478;12.066;2023-03-30T00:43:13;0.77;;;0.77;;
40995;SDS011;26723;57.478;12.066;2023-03-30T00:46:22;0.60;;;0.60;;
40995;SDS011;26723;57.478;12.066;2023-03-30T00:49:32;0.70;;;0.70;;
40995;SDS011;26723;57.478;12.066;2023-03-30T00:52:41;0.80;;;0.80;;
40995;SDS011;26723;57.478;12.066;2023-03-30T00:55:52;1.10;;;1.00;;
40995;SDS011;26723;57.478;12.066;2023-03-30T00:59:01;1.07;;;0.90;;
40995;SDS011;26723;57.478;12.066;2023-03-30T01:02:09;0.73;;;0.73;;
40995;SDS011;26723;57.478;12.066;2023-03-30T01:05:20;1.03;;;1.03;;
40995;SDS011;26723;57.478;12.066;2023-03-30T01:08:30;1.10;;;1.10;;
40995;SDS011;26723;57.478;12.066;2023-03-30T01:11:39;1.03;;;1.03;;
40995;SDS011;26723;57.478;12.066;2023-03-30T01:14:49;1.10;;;1.10;;
40995;SDS011;26723;57.478;12.066;2023-03-30T01:18:02;1.17;;;1.17;;
40995;SDS011;26723;57.478;12.066;2023-03-30T01:28:51;1.10;;;1.10;;
40995;SDS011;26723;57.478;12.066;2023-03-30T01:32:18;1.07;;;1.07;;
40995;SDS011;26723;57.478;12.066;2023-03-30T01:35:57;0.80;;;0.80;;
40995;SDS011;26723;57.478;12.066;2023-03-30T01:39:32;1.27;;;0.90;;
40995;SDS011;26723;57.478;12.066;2023-03-30T01:42:53;1.00;;;1.00;;
40995;SDS011;26723;57.478;12.066;2023-03-30T01:46:07;1.00;;;1.00;;
40995;SDS011;26723;57.478;12.066;2023-03-30T01:49:21;0.90;;;0.90;;
40995;SDS011;26723;57.478;12.066;2023-03-30T01:52:36;0.90;;;0.90;;
40995;SDS011;26723;57.478;12.066;2023-03-30T01:55:50;0.87;;;0.87;;
40995;SDS011;26723;57.478;12.066;2023-03-30T01:59:03;0.90;;;0.90;;
40995;SDS011;26723;57.478;12.066;2023-03-30T02:02:14;1.10;;;1.10;;
40995;SDS011;26723;57.478;12.066;2023-03-30T02:05:25;0.90;;;0.90;;
40995;SDS011;26723;57.478;12.066;2023-03-30T02:08:35;1.00;;;1.00;;
40995;SDS011;26723;57.478;12.066;2023-03-30T02:11:47;0.90;;;0.90;;
40995;SDS011;26723;57.478;12.066;2023-03-30T02:14:59;0.90;;;0.90;;
40995;SDS011;26723;57.478;12.066;2023-03-30T02:18:11;0.93;;;0.93;;
40995;SDS011;26723;57.478;12.066;2023-03-30T02:21:19;0.80;;;0.80;;
40995;SDS011;26723;57.478;12.066;2023-03-30T02:24:28;0.93;;;0.87;;
40995;SDS011;26723;57.478;12.066;2023-03-30T02:27:39;0.90;;;0.90;;
40995;SDS011;26723;57.478;12.066;2023-03-30T02:30:49;0.83;;;0.83;;
40995;SDS011;26723;57.478;12.066;2023-03-30T02:34:04;0.70;;;0.70;;
40995;SDS011;26723;57.478;12.066;2023-03-30T02:37:19;0.77;;;0.77;;
40995;SDS011;26723;57.478;12.066;2023-03-30T02:40:48;1.10;;;1.10;;
40995;SDS011;26723;57.478;12.066;2023-03-30T02:44:07;1.00;;;1.00;;
40995;SDS011;26723;57.478;12.066;2023-03-30T02:47:25;1.00;;;1.00;;
40995;SDS011;26723;57.478;12.066;2023-03-30T02:50:44;0.87;;;0.87;;
40995;SDS011;26723;57.478;12.066;2023-03-30T02:54:25;0.90;;;0.90;;
40995;SDS011;26723;57.478;12.066;2023-03-30T02:58:18;1.53;;;0.97;;
40995;SDS011;26723;57.478;12.066;2023-03-30T03:01:51;1.00;;;1.00;;
40995;SDS011;26723;57.478;12.066;2023-03-30T03:05:05;0.80;;;0.80;;
40995;SDS011;26723;57.478;12.066;2023-03-30T03:08:28;1.07;;;1.07;;
40995;SDS011;26723;57.478;12.066;2023-03-30T03:11:42;1.10;;;1.10;;
40995;SDS011;26723;57.478;12.066;2023-03-30T03:14:50;0.93;;;0.93;;
40995;SDS011;26723;57.478;12.066;2023-03-30T03:18:01;1.00;;;1.00;;
40995;SDS011;26723;57.478;12.066;2023-03-30T03:21:09;1.20;;;1.20;;
40995;SDS011;26723;57.478;12.066;2023-03-30T03:24:19;1.00;;;1.00;;
40995;SDS011;26723;57.478;12.066;2023-03-30T03:27:46;1.03;;;1.03;;
40995;SDS011;26723;57.478;12.066;2023-03-30T03:31:05;1.03;;;1.03;;
40995;SDS011;26723;57.478;12.066;2023-03-30T03:34:16;1.20;;;1.20;;
40995;SDS011;26723;57.478;12.066;2023-03-30T03:37:38;1.00;;;1.00;;
40995;SDS011;26723;57.478;12.066;2023-03-30T03:40:48;1.10;;;1.10;;
40995;SDS011;26723;57.478;12.066;2023-03-30T03:43:57;1.20;;;1.20;;
40995;SDS011;26723;57.478;12.066;2023-03-30T03:47:06;0.97;;;0.97;;
40995;SDS011;26723;57.478;12.066;2023-03-30T03:50:16;1.00;;;1.00;;
40995;SDS011;26723;57.478;12.066;2023-03-30T03:53:25;1.13;;;1.13;;
40995;SDS011;26723;57.478;12.066;2023-03-30T03:56:39;1.30;;;1.30;;
40995;SDS011;26723;57.478;12.066;2023-03-30T03:59:47;1.10;;;1.10;;
40995;SDS011;26723;57.478;12.066;2023-03-30T04:02:56;1.20;;;1.20;;
40995;SDS011;26723;57.478;12.066;2023-03-30T04:06:06;1.30;;;1.20;;
40995;SDS011;26723;57.478;12.066;2023-03-30T04:09:15;1.30;;;1.30;;
40995;SDS011;26723;57.478;12.066;2023-03-30T04:12:43;1.23;;;1.23;;
40995;SDS011;26723;57.478;12.066;2023-03-30T04:16:11;1.13;;;1.13;;
40995;SDS011;26723;57.478;12.066;2023-03-30T04:19:40;1.20;;;1.20;;
40995;SDS011;26723;57.478;12.066;2023-03-30T04:23:04;1.10;;;1.10;;
40995;SDS011;26723;57.478;12.066;2023-03-30T04:26:33;1.10;;;1.10;;
40995;SDS011;26723;57.478;12.066;2023-03-30T04:29:49;1.40;;;1.40;;
40995;SDS011;26723;57.478;12.066;2023-03-30T04:32:57;1.30;;;1.30;;
40995;SDS011;26723;57.478;12.066;2023-03-30T04:36:38;1.10;;;1.10;;
40995;SDS011;26723;57.478;12.066;2023-03-30T04:40:16;1.30;;;1.30;;
40995;SDS011;26723;57.478;12.066;2023-03-30T04:43:43;1.27;;;1.20;;
40995;SDS011;26723;57.478;12.066;2023-03-30T04:47:04;1.37;;;1.27;;
40995;SDS011;26723;57.478;12.066;2023-03-30T04:50:33;1.20;;;1.20;;
40995;SDS011;26723;57.478;12.066;2023-03-30T04:54:07;1.30;;;1.30;;
40995;SDS011;26723;57.478;12.066;2023-03-30T04:57:35;1.10;;;1.10;;
40995;SDS011;26723;57.478;12.066;2023-03-30T05:01:10;1.20;;;1.20;;
40995;SDS011;26723;57.478;12.066;2023-03-30T05:04:36;1.20;;;1.17;;
40995;SDS011;26723;57.478;12.066;2023-03-30T05:08:17;1.27;;;1.27;;
40995;SDS011;26723;57.478;12.066;2023-03-30T05:11:41;1.30;;;1.30;;
40995;SDS011;26723;57.478;12.066;2023-03-30T05:15:16;1.37;;;1.37;;
40995;SDS011;26723;57.478;12.066;2023-03-30T05:18:32;1.60;;;1.50;;
40995;SDS011;26723;57.478;12.066;2023-03-30T05:21:59;1.47;;;1.47;;
40995;SDS011;26723;57.478;12.066;2023-03-30T05:25:26;1.60;;;1.57;;
40995;SDS011;26723;57.478;12.066;2023-03-30T05:28:54;1.60;;;1.50;;
40995;SDS011;26723;57.478;12.066;2023-03-30T05:32:15;1.37;;;1.33;;
40995;SDS011;26723;57.478;12.066;2023-03-30T05:35:23;1.50;;;1.50;;
40995;SDS011;26723;57.478;12.066;2023-03-30T05:38:51;1.50;;;1.50;;
40995;SDS011;26723;57.478;12.066;2023-03-30T05:42:21;1.30;;;1.30;;
40995;SDS011;26723;57.478;12.066;2023-03-30T05:45:46;1.20;;;1.20;;
40995;SDS011;26723;57.478;12.066;2023-03-30T05:49:12;1.33;;;1.33;;
40995;SDS011;26723;57.478;12.066;2023-03-30T05:52:43;1.40;;;1.40;;
40995;SDS011;26723;57.478;12.066;2023-03-30T05:56:06;1.70;;;1.60;;
40995;SDS011;26723;57.478;12.066;2023-03-30T05:59:54;1.40;;;1.40;;
40995;SDS011;26723;57.478;12.066;2023-03-30T06:03:21;1.50;;;1.50;;
40995;SDS011;26723;57.478;12.066;2023-03-30T06:06:31;1.30;;;1.30;;
40995;SDS011;26723;57.478;12.066;2023-03-30T06:09:39;1.23;;;1.23;;
40995;SDS011;26723;57.478;12.066;2023-03-30T06:12:58;1.37;;;1.37;;
40995;SDS011;26723;57.478;12.066;2023-03-30T06:16:16;1.40;;;1.40;;
40995;SDS011;26723;57.478;12.066;2023-03-30T06:19:25;1.40;;;1.40;;
40995;SDS011;26723;57.478;12.066;2023-03-30T06:22:35;1.17;;;1.17;;
40995;SDS011;26723;57.478;12.066;2023-03-30T06:25:49;1.50;;;1.50;;
40995;SDS011;26723;57.478;12.066;2023-03-30T06:29:05;1.13;;;1.13;;
40995;SDS011;26723;57.478;12.066;2023-03-30T06:32:14;1.17;;;1.17;;
40995;SDS011;26723;57.478;12.066;2023-03-30T06:35:23;1.17;;;1.17;;
40995;SDS011;26723;57.478;12.066;2023-03-30T06:38:34;1.30;;;1.30;;
40995;SDS011;26723;57.478;12.066;2023-03-30T06:41:43;1.10;;;1.10;;
40995;SDS011;26723;57.478;12.066;2023-03-30T06:45:10;1.13;;;1.13;;
40995;SDS011;26723;57.478;12.066;2023-03-30T06:48:20;1.30;;;1.30;;
40995;SDS011;26723;57.478;12.066;2023-03-30T06:51:50;1.30;;;1.30;;
40995;SDS011;26723;57.478;12.066;2023-03-30T06:55:00;1.20;;;1.20;;
40995;SDS011;26723;57.478;12.066;2023-03-30T06:58:08;1.30;;;1.30;;
40995;SDS011;26723;57.478;12.066;2023-03-30T07:01:17;1.37;;;1.37;;
40995;SDS011;26723;57.478;12.066;2023-03-30T07:04:48;1.27;;;1.27;;
40995;SDS011;26723;57.478;12.066;2023-03-30T07:08:09;1.30;;;1.30;;
40995;SDS011;26723;57.478;12.066;2023-03-30T07:11:24;1.30;;;1.30;;
40995;SDS011;26723;57.478;12.066;2023-03-30T07:14:32;1.30;;;1.20;;
40995;SDS011;26723;57.478;12.066;2023-03-30T07:17:41;1.00;;;1.00;;
40995;SDS011;26723;57.478;12.066;2023-03-30T07:20:50;1.07;;;1.07;;
40995;SDS011;26723;57.478;12.066;2023-03-30T07:24:00;1.10;;;1.10;;
40995;SDS011;26723;57.478;12.066;2023-03-30T07:27:14;1.20;;;1.20;;
40995;SDS011;26723;57.478;12.066;2023-03-30T07:30:24;1.70;;;1.60;;
40995;SDS011;26723;57.478;12.066;2023-03-30T07:33:39;1.40;;;1.30;;
40995;SDS011;26723;57.478;12.066;2023-03-30T07:36:51;1.03;;;1.03;;
40995;SDS011;26723;57.478;12.066;2023-03-30T07:40:04;1.30;;;1.30;;
40995;SDS011;26723;57.478;12.066;2023-03-30T07:43:20;1.40;;;1.30;;
40995;SDS011;26723;57.478;12.066;2023-03-30T07:46:29;1.10;;;1.10;;
40995;SDS011;26723;57.478;12.066;2023-03-30T07:49:40;1.00;;;1.00;;
40995;SDS011;26723;57.478;12.066;2023-03-30T07:52:49;1.00;;;1.00;;
40995;SDS011;26723;57.478;12.066;2023-03-30T07:55:58;0.93;;;0.93;;
40995;SDS011;26723;57.478;12.066;2023-03-30T07:59:16;1.00;;;1.00;;
40995;SDS011;26723;57.478;12.066;2023-03-30T08:02:25;1.00;;;1.00;;
40995;SDS011;26723;57.478;12.066;2023-03-30T08:05:34;0.90;;;0.90;;
40995;SDS011;26723;57.478;12.066;2023-03-30T08:08:56;0.77;;;0.77;;
40995;SDS011;26723;57.478;12.066;2023-03-30T08:12:05;0.87;;;0.87;;
40995;SDS011;26723;57.478;12.066;2023-03-30T08:15:15;0.77;;;0.77;;
40995;SDS011;26723;57.478;12.066;2023-03-30T08:18:24;0.73;;;0.73;;
40995;SDS011;26723;57.478;12.066;2023-03-30T08:21:34;0.80;;;0.80;;
40995;SDS011;26723;57.478;12.066;2023-03-30T08:24:43;0.53;;;0.53;;
40995;SDS011;26723;57.478;12.066;2023-03-30T08:27:51;0.50;;;0.50;;
40995;SDS011;26723;57.478;12.066;2023-03-30T08:31:04;0.70;;;0.70;;
40995;SDS011;26723;57.478;12.066;2023-03-30T08:34:13;0.70;;;0.70;;
40995;SDS011;26723;57.478;12.066;2023-03-30T08:37:22;0.53;;;0.53;;
40995;SDS011;26723;57.478;12.066;2023-03-30T08:40:30;0.60;;;0.60;;
40995;SDS011;26723;57.478;12.066;2023-03-30T08:43:41;0.53;;;0.53;;
40995;SDS011;26723;57.478;12.066;2023-03-30T08:46:57;0.50;;;0.50;;
40995;SDS011;26723;57.478;12.066;2023-03-30T08:50:10;0.60;;;0.60;;
40995;SDS011;26723;57.478;12.066;2023-03-30T08:53:20;0.47;;;0.47;;
40995;SDS011;26723;57.478;12.066;2023-03-30T08:56:29;0.50;;;0.50;;
40995;SDS011;26723;57.478;12.066;2023-03-30T08:59:42;0.70;;;0.70;;
40995;SDS011;26723;57.478;12.066;2023-03-30T09:02:56;0.50;;;0.50;;
40995;SDS011;26723;57.478;12.066;2023-03-30T09:06:13;0.50;;;0.50;;
40995;SDS011;26723;57.478;12.066;2023-03-30T09:09:31;0.83;;;0.83;;
40995;SDS011;26723;57.478;12.066;2023-03-30T09:12:49;0.63;;;0.63;;
40995;SDS011;26723;57.478;12.066;2023-03-30T09:16:02;0.40;;;0.40;;
40995;SDS011;26723;57.478;12.066;2023-03-30T09:19:19;0.60;;;0.60;;
40995;SDS011;26723;57.478;12.066;2023-03-30T09:22:34;0.60;;;0.60;;
40995;SDS011;26723;57.478;12.066;2023-03-30T09:25:47;0.77;;;0.77;;
40995;SDS011;26723;57.478;12.066;2023-03-30T09:29:05;0.57;;;0.57;;
40995;SDS011;26723;57.478;12.066;2023-03-30T09:32:21;0.80;;;0.80;;
40995;SDS011;26723;57.478;12.066;2023-03-30T09:35:40;0.57;;;0.57;;
40995;SDS011;26723;57.478;12.066;2023-03-30T09:38:50;0.50;;;0.50;;
40995;SDS011;26723;57.478;12.066;2023-03-30T09:42:02;0.67;;;0.67;;
40995;SDS011;26723;57.478;12.066;2023-03-30T09:45:20;0.40;;;0.40;;
40995;SDS011;26723;57.478;12.066;2023-03-30T09:48:39;0.60;;;0.60;;
40995;SDS011;26723;57.478;12.066;2023-03-30T09:51:54;0.53;;;0.53;;
40995;SDS011;26723;57.478;12.066;2023-03-30T09:55:22;0.50;;;0.50;;
40995;SDS011;26723;57.478;12.066;2023-03-30T09:58:34;0.80;;;0.80;;
40995;SDS011;26723;57.478;12.066;2023-03-30T10:01:43;0.60;;;0.60;;
40995;SDS011;26723;57.478;12.066;2023-03-30T10:04:56;0.83;;;0.83;;
40995;SDS011;26723;57.478;12.066;2023-03-30T10:08:16;0.73;;;0.73;;
40995;SDS011;26723;57.478;12.066;2023-03-30T10:11:32;0.60;;;0.60;;
40995;SDS011;26723;57.478;12.066;2023-03-30T10:14:43;0.77;;;0.77;;
40995;SDS011;26723;57.478;12.066;2023-03-30T10:17:52;0.57;;;0.57;;
40995;SDS011;26723;57.478;12.066;2023-03-30T10:21:03;0.80;;;0.80;;
40995;SDS011;26723;57.478;12.066;2023-03-30T10:24:19;0.77;;;0.77;;
40995;SDS011;26723;57.478;12.066;2023-03-30T10:27:31;0.70;;;0.70;;
40995;SDS011;26723;57.478;12.066;2023-03-30T10:30:40;0.70;;;0.70;;
40995;SDS011;26723;57.478;12.066;2023-03-30T10:33:58;0.67;;;0.67;;
40995;SDS011;26723;57.478;12.066;2023-03-30T10:37:09;0.60;;;0.60;;
40995;SDS011;26723;57.478;12.066;2023-03-30T10:40:25;0.70;;;0.70;;
40995;SDS011;26723;57.478;12.066;2023-03-30T10:43:38;0.80;;;0.80;;
40995;SDS011;26723;57.478;12.066;2023-03-30T10:46:49;1.43;;;0.77;;
40995;SDS011;26723;57.478;12.066;2023-03-30T10:50:02;0.63;;;0.63;;
40995;SDS011;26723;57.478;12.066;2023-03-30T10:53:22;0.73;;;0.73;;
40995;SDS011;26723;57.478;12.066;2023-03-30T10:56:40;1.07;;;0.70;;
40995;SDS011;26723;57.478;12.066;2023-03-30T11:03:24;0.80;;;0.80;;
40995;SDS011;26723;57.478;12.066;2023-03-30T11:06:36;0.60;;;0.60;;
40995;SDS011;26723;57.478;12.066;2023-03-30T11:09:50;0.60;;;0.60;;
40995;SDS011;26723;57.478;12.066;2023-03-30T11:13:03;0.40;;;0.40;;
40995;SDS011;26723;57.478;12.066;2023-03-30T11:16:15;0.37;;;0.37;;
40995;SDS011;26723;57.478;12.066;2023-03-30T11:19:30;0.50;;;0.50;;
40995;SDS011;26723;57.478;12.066;2023-03-30T11:22:45;0.30;;;0.30;;
40995;SDS011;26723;57.478;12.066;2023-03-30T11:25:59;0.50;;;0.50;;
40995;SDS011;26723;57.478;12.066;2023-03-30T11:29:20;0.50;;;0.50;;
40995;SDS011;26723;57.478;12.066;2023-03-30T11:32:36;0.50;;;0.50;;
40995;SDS011;26723;57.478;12.066;2023-03-30T11:35:51;0.73;;;0.40;;
40995;SDS011;26723;57.478;12.066;2023-03-30T11:39:03;0.50;;;0.50;;
40995;SDS011;26723;57.478;12.066;2023-03-30T11:42:18;0.47;;;0.47;;
40995;SDS011;26723;57.478;12.066;2023-03-30T11:45:39;0.53;;;0.53;;
40995;SDS011;26723;57.478;12.066;2023-03-30T11:49:02;0.47;;;0.40;;
40995;SDS011;26723;57.478;12.066;2023-03-30T11:52:23;0.30;;;0.30;;
40995;SDS011;26723;57.478;12.066;2023-03-30T11:59:12;0.40;;;0.40;;
40995;SDS011;26723;57.478;12.066;2023-03-30T12:02:32;0.30;;;0.30;;
40995;SDS011;26723;57.478;12.066;2023-03-30T12:05:47;0.40;;;0.40;;
40995;SDS011;26723;57.478;12.066;2023-03-30T12:09:01;0.37;;;0.37;;
40995;SDS011;26723;57.478;12.066;2023-03-30T12:12:27;0.40;;;0.40;;
40995;SDS011;26723;57.478;12.066;2023-03-30T12:15:41;0.40;;;0.40;;
40995;SDS011;26723;57.478;12.066;2023-03-30T12:19:02;0.60;;;0.60;;
40995;SDS011;26723;57.478;12.066;2023-03-30T12:22:19;0.30;;;0.30;;
40995;SDS011;26723;57.478;12.066;2023-03-30T12:25:34;0.40;;;0.40;;
40995;SDS011;26723;57.478;12.066;2023-03-30T12:29:10;0.50;;;0.50;;
40995;SDS011;26723;57.478;12.066;2023-03-30T12:32:39;0.40;;;0.40;;
40995;SDS011;26723;57.478;12.066;2023-03-30T12:36:19;0.40;;;0.40;;
40995;SDS011;26723;57.478;12.066;2023-03-30T12:39:33;0.40;;;0.40;;
40995;SDS011;26723;57.478;12.066;2023-03-30T12:42:51;0.50;;;0.50;;
40995;SDS011;26723;57.478;12.066;2023-03-30T12:46:14;0.30;;;0.30;;
40995;SDS011;26723;57.478;12.066;2023-03-30T12:49:34;0.37;;;0.37;;
40995;SDS011;26723;57.478;12.066;2023-03-30T12:52:56;0.43;;;0.43;;
40995;SDS011;26723;57.478;12.066;2023-03-30T12:56:25;0.53;;;0.53;;
40995;SDS011;26723;57.478;12.066;2023-03-30T12:59:54;0.50;;;0.50;;
40995;SDS011;26723;57.478;12.066;2023-03-30T13:03:38;0.67;;;0.67;;
40995;SDS011;26723;57.478;12.066;2023-03-30T13:06:55;0.30;;;0.30;;
40995;SDS011;26723;57.478;12.066;2023-03-30T13:10:33;0.30;;;0.30;;
40995;SDS011;26723;57.478;12.066;2023-03-30T13:13:47;0.50;;;0.50;;
40995;SDS011;26723;57.478;12.066;2023-03-30T13:17:12;0.40;;;0.40;;
40995;SDS011;26723;57.478;12.066;2023-03-30T13:20:26;0.30;;;0.30;;
40995;SDS011;26723;57.478;12.066;2023-03-30T13:23:37;0.50;;;0.50;;
40995;SDS011;26723;57.478;12.066;2023-03-30T13:26:45;0.50;;;0.50;;
40995;SDS011;26723;57.478;12.066;2023-03-30T13:29:57;0.33;;;0.33;;
40995;SDS011;26723;57.478;12.066;2023-03-30T13:33:08;0.27;;;0.27;;
40995;SDS011;26723;57.478;12.066;2023-03-30T13:36:21;0.50;;;0.50;;
40995;SDS011;26723;57.478;12.066;2023-03-30T13:39:34;0.40;;;0.40;;
40995;SDS011;26723;57.478;12.066;2023-03-30T13:42:48;0.40;;;0.40;;
40995;SDS011;26723;57.478;12.066;2023-03-30T13:46:10;0.40;;;0.40;;
40995;SDS011;26723;57.478;12.066;2023-03-30T13:49:26;0.50;;;0.50;;
40995;SDS011;26723;57.478;12.066;2023-03-30T13:52:45;0.40;;;0.40;;
40995;SDS011;26723;57.478;12.066;2023-03-30T13:55:56;0.40;;;0.40;;
40995;SDS011;26723;57.478;12.066;2023-03-30T13:59:05;0.27;;;0.27;;
40995;SDS011;26723;57.478;12.066;2023-03-30T14:02:20;0.40;;;0.40;;
40995;SDS011;26723;57.478;12.066;2023-03-30T14:05:30;0.30;;;0.30;;
40995;SDS011;26723;57.478;12.066;2023-03-30T14:08:40;0.33;;;0.33;;
40995;SDS011;26723;57.478;12.066;2023-03-30T14:11:52;0.40;;;0.40;;
40995;SDS011;26723;57.478;12.066;2023-03-30T14:15:13;0.20;;;0.20;;
40995;SDS011;26723;57.478;12.066;2023-03-30T14:18:25;0.43;;;0.43;;
40995;SDS011;26723;57.478;12.066;2023-03-30T14:21:34;0.30;;;0.30;;
40995;SDS011;26723;57.478;12.066;2023-03-30T14:24:55;0.30;;;0.30;;
40995;SDS011;26723;57.478;12.066;2023-03-30T14:28:06;0.20;;;0.20;;
40995;SDS011;26723;57.478;12.066;2023-03-30T14:31:20;0.27;;;0.27;;
40995;SDS011;26723;57.478;12.066;2023-03-30T14:34:31;0.20;;;0.20;;
40995;SDS011;26723;57.478;12.066;2023-03-30T14:37:40;0.30;;;0.30;;
40995;SDS011;26723;57.478;12.066;2023-03-30T14:40:57;0.27;;;0.27;;
40995;SDS011;26723;57.478;12.066;2023-03-30T14:44:06;0.27;;;0.27;;
40995;SDS011;26723;57.478;12.066;2023-03-30T14:47:19;0.10;;;0.10;;
40995;SDS011;26723;57.478;12.066;2023-03-30T14:50:31;0.30;;;0.30;;
40995;SDS011;26723;57.478;12.066;2023-03-30T14:53:39;0.30;;;0.30;;
40995;SDS011;26723;57.478;12.066;2023-03-30T14:56:50;0.30;;;0.30;;
40995;SDS011;26723;57.478;12.066;2023-03-30T15:00:03;0.30;;;0.30;;
40995;SDS011;26723;57.478;12.066;2023-03-30T15:03:27;0.30;;;0.30;;
40995;SDS011;26723;57.478;12.066;2023-03-30T15:06:41;0.30;;;0.27;;
40995;SDS011;26723;57.478;12.066;2023-03-30T15:09:53;0.30;;;0.30;;
40995;SDS011;26723;57.478;12.066;2023-03-30T15:13:03;0.30;;;0.30;;
40995;SDS011;26723;57.478;12.066;2023-03-30T15:16:14;0.30;;;0.30;;
40995;SDS011;26723;57.478;12.066;2023-03-30T15:19:27;0.40;;;0.40;;
40995;SDS011;26723;57.478;12.066;2023-03-30T15:22:39;0.20;;;0.20;;
40995;SDS011;26723;57.478;12.066;2023-03-30T15:25:51;0.23;;;0.23;;
40995;SDS011;26723;57.478;12.066;2023-03-30T15:29:04;0.50;;;0.50;;
40995;SDS011;26723;57.478;12.066;2023-03-30T15:32:14;0.30;;;0.30;;
40995;SDS011;26723;57.478;12.066;2023-03-30T15:35:25;0.27;;;0.27;;
40995;SDS011;26723;57.478;12.066;2023-03-30T15:38:41;0.70;;;0.70;;
40995;SDS011;26723;57.478;12.066;2023-03-30T15:41:57;0.23;;;0.23;;
40995;SDS011;26723;57.478;12.066;2023-03-30T15:45:10;0.40;;;0.40;;
40995;SDS011;26723;57.478;12.066;2023-03-30T15:48:20;0.40;;;0.40;;
40995;SDS011;26723;57.478;12.066;2023-03-30T15:51:34;0.33;;;0.33;;
40995;SDS011;26723;57.478;12.066;2023-03-30T15:54:47;0.30;;;0.30;;
40995;SDS011;26723;57.478;12.066;2023-03-30T15:57:59;0.20;;;0.20;;
40995;SDS011;26723;57.478;12.066;2023-03-30T16:01:10;0.20;;;0.20;;
40995;SDS011;26723;57.478;12.066;2023-03-30T16:04:22;0.30;;;0.30;;
40995;SDS011;26723;57.478;12.066;2023-03-30T16:07:31;0.20;;;0.20;;
40995;SDS011;26723;57.478;12.066;2023-03-30T16:10:42;0.20;;;0.20;;
40995;SDS011;26723;57.478;12.066;2023-03-30T16:13:51;0.20;;;0.20;;
40995;SDS011;26723;57.478;12.066;2023-03-30T16:17:00;0.30;;;0.30;;
40995;SDS011;26723;57.478;12.066;2023-03-30T16:20:13;0.30;;;0.30;;
40995;SDS011;26723;57.478;12.066;2023-03-30T16:23:24;0.20;;;0.20;;
40995;SDS011;26723;57.478;12.066;2023-03-30T16:26:37;0.20;;;0.20;;
40995;SDS011;26723;57.478;12.066;2023-03-30T16:29:46;0.27;;;0.27;;
40995;SDS011;26723;57.478;12.066;2023-03-30T16:32:54;0.40;;;0.40;;
40995;SDS011;26723;57.478;12.066;2023-03-30T16:36:03;0.40;;;0.40;;
40995;SDS011;26723;57.478;12.066;2023-03-30T16:39:19;0.47;;;0.47;;
40995;SDS011;26723;57.478;12.066;2023-03-30T16:42:31;0.20;;;0.20;;
40995;SDS011;26723;57.478;12.066;2023-03-30T16:45:40;0.30;;;0.30;;
40995;SDS011;26723;57.478;12.066;2023-03-30T16:48:49;0.30;;;0.30;;
40995;SDS011;26723;57.478;12.066;2023-03-30T16:51:57;0.20;;;0.20;;
40995;SDS011;26723;57.478;12.066;2023-03-30T16:55:07;0.20;;;0.20;;
40995;SDS011;26723;57.478;12.066;2023-03-30T16:58:17;0.20;;;0.20;;
40995;SDS011;26723;57.478;12.066;2023-03-30T17:01:26;0.30;;;0.30;;
40995;SDS011;26723;57.478;12.066;2023-03-30T17:04:35;0.10;;;0.10;;
40995;SDS011;26723;57.478;12.066;2023-03-30T17:07:44;0.20;;;0.20;;
40995;SDS011;26723;57.478;12.066;2023-03-30T17:10:53;0.20;;;0.20;;
40995;SDS011;26723;57.478;12.066;2023-03-30T17:14:05;0.20;;;0.20;;
40995;SDS011;26723;57.478;12.066;2023-03-30T17:17:14;0.30;;;0.30;;
40995;SDS011;26723;57.478;12.066;2023-03-30T17:20:24;0.20;;;0.20;;
40995;SDS011;26723;57.478;12.066;2023-03-30T17:23:35;0.30;;;0.30;;
40995;SDS011;26723;57.478;12.066;2023-03-30T17:26:43;0.20;;;0.20;;
40995;SDS011;26723;57.478;12.066;2023-03-30T17:29:53;0.30;;;0.30;;
40995;SDS011;26723;57.478;12.066;2023-03-30T17:33:02;0.10;;;0.10;;
40995;SDS011;26723;57.478;12.066;2023-03-30T17:36:16;0.40;;;0.40;;
40995;SDS011;26723;57.478;12.066;2023-03-30T17:39:26;0.30;;;0.30;;
40995;SDS011;26723;57.478;12.066;2023-03-30T17:42:34;0.30;;;0.30;;
40995;SDS011;26723;57.478;12.066;2023-03-30T17:45:44;0.30;;;0.30;;
40995;SDS011;26723;57.478;12.066;2023-03-30T17:48:52;0.30;;;0.30;;
40995;SDS011;26723;57.478;12.066;2023-03-30T17:52:01;0.30;;;0.30;;
40995;SDS011;26723;57.478;12.066;2023-03-30T17:55:09;0.20;;;0.20;;
40995;SDS011;26723;57.478;12.066;2023-03-30T17:58:18;0.30;;;0.30;;
40995;SDS011;26723;57.478;12.066;2023-03-30T18:01:29;0.20;;;0.20;;
40995;SDS011;26723;57.478;12.066;2023-03-30T18:04:41;0.30;;;0.30;;
40995;SDS011;26723;57.478;12.066;2023-03-30T18:07:49;0.20;;;0.20;;
40995;SDS011;26723;57.478;12.066;2023-03-30T18:10:59;0.20;;;0.20;;
40995;SDS011;26723;57.478;12.066;2023-03-30T18:14:07;0.30;;;0.30;;
40995;SDS011;26723;57.478;12.066;2023-03-30T18:17:18;0.23;;;0.23;;
40995;SDS011;26723;57.478;12.066;2023-03-30T18:20:27;0.30;;;0.30;;
40995;SDS011;26723;57.478;12.066;2023-03-30T18:23:38;0.20;;;0.20;;
40995;SDS011;26723;57.478;12.066;2023-03-30T18:26:46;0.10;;;0.10;;
40995;SDS011;26723;57.478;12.066;2023-03-30T18:29:55;0.20;;;0.20;;
40995;SDS011;26723;57.478;12.066;2023-03-30T18:33:05;0.20;;;0.20;;
40995;SDS011;26723;57.478;12.066;2023-03-30T18:36:14;0.20;;;0.20;;
40995;SDS011;26723;57.478;12.066;2023-03-30T18:39:25;0.10;;;0.10;;
40995;SDS011;26723;57.478;12.066;2023-03-30T18:42:33;0.20;;;0.20;;
40995;SDS011;26723;57.478;12.066;2023-03-30T18:45:45;0.10;;;0.10;;
40995;SDS011;26723;57.478;12.066;2023-03-30T18:48:56;0.10;;;0.10;;
40995;SDS011;26723;57.478;12.066;2023-03-30T18:52:05;0.10;;;0.10;;
40995;SDS011;26723;57.478;12.066;2023-03-30T18:55:13;0.70;;;0.70;;
40995;SDS011;26723;57.478;12.066;2023-03-30T18:58:23;0.13;;;0.13;;
40995;SDS011;26723;57.478;12.066;2023-03-30T19:01:33;0.17;;;0.17;;
40995;SDS011;26723;57.478;12.066;2023-03-30T19:04:45;0.20;;;0.20;;
40995;SDS011;26723;57.478;12.066;2023-03-30T19:07:56;0.20;;;0.20;;
40995;SDS011;26723;57.478;12.066;2023-03-30T19:11:05;0.30;;;0.30;;
40995;SDS011;26723;57.478;12.066;2023-03-30T19:14:14;0.30;;;0.30;;
40995;SDS011;26723;57.478;12.066;2023-03-30T19:17:23;0.20;;;0.20;;
40995;SDS011;26723;57.478;12.066;2023-03-30T19:20:34;0.20;;;0.20;;
40995;SDS011;26723;57.478;12.066;2023-03-30T19:23:45;0.20;;;0.20;;
40995;SDS011;26723;57.478;12.066;2023-03-30T19:26:53;0.10;;;0.10;;
40995;SDS011;26723;57.478;12.066;2023-03-30T19:30:02;0.20;;;0.20;;